KSAT

San Antonio International Airport

San Antonio, Texas, USA
METAR KSAT 182251Z 16008KT 360V200 10SM FEW080 SCT250 37/15 A2989 RMK AO2 SLP102 T03670150
Observed Flight Rules
Aug-18 @ 22:51 UTC (56 minutes ago) Visual Flight Rules
Wind Visibility Clouds
160° at 8 knots 10 miles
  • Few at 8,000' AGL
  • Scattered at 25,000' AGL
Temperatures Readings
Current 37°C / 99°F
Dewpoint 15°C / 59°F
Humidity 27%
Altimeter 29.89" Hg
Pressure 1010.2 hPa
Elevation 243
METAR KSAT 182251Z 16008KT 360V200 10SM FEW080 SCT250 37/15 A2989 RMK AO2 SLP102 T03670150
Observed Flight Rules
Aug-18 @ 22:51 UTC
(56 minutes ago)
VFR
Wind Visibility
160° at 8 knots 10 miles
Clouds
  • Few at 8,000' AGL
  • Scattered at 25,000' AGL
Temperature Dewpoint
37°C / 99°F 15°C / 59°F
Humidity Altimeter Pressure
27% 29.89" Hg 1010.2 hPa